Time;durP1;ratioP1;P1;durP2;ratioP2;P2;SDS_P1;SDS_P2;PMS_P1;PMS_P2;Temp;Humidity;BMP_temperature;BMP_pressure;BME280_temperature;BME280_humidity;BME280_pressure;Samples;Min_cycle;Max_cycle;Signal;HPM_P1;HPM_P2
2021/04/01 00:00:45;;;;;;;;;;;;;;;6.63;75.78;97019.33;1733370;82;22311;-61
2021/04/01 00:03:13;;;;;;;;;;;;;;;6.59;75.87;97027.28;1730891;82;20225;-59
2021/04/01 00:05:41;;;;;;;;;;;;;;;6.56;75.95;97021.84;1739901;82;20225;-60
2021/04/01 00:08:10;;;;;;;;;;;;;;;6.56;76.06;97020.55;1700618;84;20570;-60
2021/04/01 00:10:42;;;;;;;;;;;;;;;6.58;76.11;97022.59;1691559;84;20253;-60
2021/04/01 00:13:09;;;;;;;;;;;;;;;6.57;76.03;97016.22;1680180;84;21315;-60
2021/04/01 00:15:41;;;;;;;;;;;;;;;6.54;76.03;97008.63;1682355;84;20342;-61
2021/04/01 00:18:11;;;;;;;;;;;;;;;6.53;76.02;97008.23;1727616;82;20252;-60
2021/04/01 00:20:38;;;;;;;;;;;;;;;6.52;76.04;97005.29;1718505;82;20228;-60
2021/04/01 00:23:06;;;;;;;;;;;;;;;6.47;76.12;97005.97;1651350;87;20487;-60
2021/04/01 00:25:34;;;;;;;;;;;;;;;6.43;76.11;97011.27;1697060;84;21158;-61
2021/04/01 00:28:02;;;;;;;;;;;;;;;6.42;76.07;97010.88;1724666;81;20636;-60
2021/04/01 00:30:29;;;;;;;;;;;;;;;6.38;75.97;97002.91;1724453;81;20510;-60
2021/04/01 00:32:56;;;;;;;;;;;;;;;6.32;76.06;96986.44;1733199;81;20304;-60
2021/04/01 00:35:24;;;;;;;;;;;;;;;6.29;76.13;96998.64;1738503;82;20222;-59
2021/04/01 00:37:53;;;;;;;;;;;;;;;6.27;76.14;96993.56;1742690;82;20214;-59
2021/04/01 00:40:22;;;;;;;;;;;;;;;6.26;76.14;96997.86;1720647;82;20223;-59
2021/04/01 00:42:49;;;;;;;;;;;;;;;6.25;76.23;96992.80;1699966;82;20243;-59
2021/04/01 00:45:17;;;;;;;;;;;;;;;6.27;76.19;96981.96;1680718;85;20584;-60
2021/04/01 00:47:47;;;;;;;;;;;;;;;6.25;76.30;96988.94;1691497;84;20245;-60
2021/04/01 00:50:25;;;;;;;;;;;;;;;6.23;76.30;96989.44;1693710;84;21300;-60
2021/04/01 00:52:55;;;;;;;;;;;;;;;6.19;76.46;96982.31;1688995;84;20240;-60
2021/04/01 00:55:22;;;;;;;;;;;;;;;6.14;76.56;96986.84;1707120;84;20515;-60
2021/04/01 00:57:51;;;;;;;;;;;;;;;6.13;76.64;96982.59;1704998;84;20860;-60
2021/04/01 01:00:22;;;;;;;;;;;;;;;6.14;76.61;96971.39;1705622;84;20501;-60
2021/04/01 01:02:49;;;;;;;;;;;;;;;6.15;76.52;96971.78;1696778;84;21160;-60
2021/04/01 01:05:17;;;;;;;;;;;;;;;6.18;76.34;96966.92;1683525;84;20282;-60
2021/04/01 01:07:44;;;;;;;;;;;;;;;6.19;76.14;96965.56;1683037;84;20230;-60
2021/04/01 01:10:15;;;;;;;;;;;;;;;6.19;75.99;96965.56;1692274;84;20243;-60
2021/04/01 01:12:42;;;;;;;;;;;;;;;6.21;76.00;96957.77;1703054;84;20225;-60
2021/04/01 01:15:10;;;;;;;;;;;;;;;6.20;75.97;96959.52;1707172;84;21402;-60
2021/04/01 01:17:38;;;;;;;;;;;;;;;6.20;75.88;96949.21;1709570;83;20221;-60
2021/04/01 01:20:08;;;;;;;;;;;;;;;6.20;75.79;96941.91;1660289;85;20231;-60
2021/04/01 01:22:39;;;;;;;;;;;;;;;6.17;75.83;96941.62;1680441;85;20223;-60
2021/04/01 01:25:09;;;;;;;;;;;;;;;6.18;75.83;96939.41;1676478;85;20594;-60
2021/04/01 01:27:39;;;;;;;;;;;;;;;6.21;75.80;96939.73;1695624;84;21233;-60
2021/04/01 01:30:13;;;;;;;;;;;;;;;6.21;75.65;96935.40;1695638;84;20271;-60
2021/04/01 01:32:43;;;;;;;;;;;;;;;6.18;75.46;96937.30;1700361;82;20507;-60
2021/04/01 01:35:18;;;;;;;;;;;;;;;6.13;75.53;96932.81;1694406;84;20235;-59
2021/04/01 01:37:52;;;;;;;;;;;;;;;6.13;75.48;96934.10;1695714;84;20493;-59
2021/04/01 01:40:20;;;;;;;;;;;;;;;6.14;75.48;96924.19;1694462;84;21370;-59
2021/04/01 01:42:49;;;;;;;;;;;;;;;6.10;75.47;96935.06;1700788;84;20233;-60
2021/04/01 01:45:17;;;;;;;;;;;;;;;6.06;75.52;96928.41;1697988;84;20295;-60
2021/04/01 01:47:44;;;;;;;;;;;;;;;6.01;75.67;96918.77;1687306;84;20234;-60
2021/04/01 01:50:12;;;;;;;;;;;;;;;6.02;75.71;96930.73;1693382;84;20238;-60
2021/04/01 01:52:40;;;;;;;;;;;;;;;6.00;75.69;96923.10;1678809;84;22063;-60
2021/04/01 01:55:09;;;;;;;;;;;;;;;5.99;75.66;96922.70;1688384;84;20229;-60
2021/04/01 01:57:37;;;;;;;;;;;;;;;5.98;75.54;96913.77;1695425;84;20225;-60
2021/04/01 02:00:08;;;;;;;;;;;;;;;5.94;75.60;96913.05;1679621;84;20626;-60
2021/04/01 02:02:36;;;;;;;;;;;;;;;5.89;75.72;96917.12;1660529;84;20230;-60
2021/04/01 02:05:08;;;;;;;;;;;;;;;5.88;75.91;96912.86;1662215;84;21209;-60
2021/04/01 02:07:36;;;;;;;;;;;;;;;5.88;75.92;96902.56;1686633;84;21898;-60
2021/04/01 02:10:06;;;;;;;;;;;;;;;5.91;75.88;96899.02;1707318;84;20508;-61
2021/04/01 02:12:33;;;;;;;;;;;;;;;5.93;75.73;96897.66;1707275;84;20577;-60
2021/04/01 02:15:00;;;;;;;;;;;;;;;5.92;75.57;96901.98;1699577;84;20227;-60
2021/04/01 02:17:28;;;;;;;;;;;;;;;5.89;75.61;96896.98;1688128;84;21161;-60
2021/04/01 02:19:57;;;;;;;;;;;;;;;5.89;75.64;96895.23;1686399;84;20219;-61
2021/04/01 02:22:25;;;;;;;;;;;;;;;5.91;75.63;96892.58;1705561;84;20634;-61
2021/04/01 02:24:52;;;;;;;;;;;;;;;5.91;75.53;96890.00;1696923;84;20220;-59
2021/04/01 02:27:21;;;;;;;;;;;;;;;5.89;75.44;96891.83;1694256;84;20274;-61
2021/04/01 02:29:48;;;;;;;;;;;;;;;5.85;75.48;96881.27;1678854;85;22031;-62
2021/04/01 02:32:15;;;;;;;;;;;;;;;5.83;75.62;96880.05;1683403;84;20251;-59
2021/04/01 02:34:43;;;;;;;;;;;;;;;5.81;75.69;96872.86;1680287;84;20227;-60
2021/04/01 02:37:11;;;;;;;;;;;;;;;5.83;75.79;96876.19;1694541;84;20233;-60
2021/04/01 02:39:39;;;;;;;;;;;;;;;5.86;75.69;96874.77;1695314;84;20228;-61
2021/04/01 02:42:09;;;;;;;;;;;;;;;5.87;75.50;96876.87;1671592;84;21197;-61
2021/04/01 02:44:37;;;;;;;;;;;;;;;5.86;75.45;96876.05;1700747;84;20504;-60
2021/04/01 02:47:04;;;;;;;;;;;;;;;5.86;75.43;96872.66;1699203;84;20231;-61
2021/04/01 02:49:32;;;;;;;;;;;;;;;5.87;75.51;96875.16;1681099;84;20255;-60
2021/04/01 02:51:59;;;;;;;;;;;;;;;5.86;75.46;96872.19;1693882;84;20240;-59
2021/04/01 02:54:28;;;;;;;;;;;;;;;5.86;75.37;96870.90;1694412;84;21171;-60
2021/04/01 02:56:56;;;;;;;;;;;;;;;5.86;75.50;96869.61;1681634;84;20720;-59
2021/04/01 02:59:23;;;;;;;;;;;;;;;5.88;75.41;96857.95;1695164;84;20511;-60
2021/04/01 03:01:51;;;;;;;;;;;;;;;5.91;75.10;96857.81;1687454;84;20259;-60
2021/04/01 03:04:18;;;;;;;;;;;;;;;5.90;75.04;96862.57;1690451;84;20237;-61
2021/04/01 03:06:46;;;;;;;;;;;;;;;5.86;74.99;96862.35;1691154;84;21281;-60
2021/04/01 03:09:15;;;;;;;;;;;;;;;5.85;75.00;96861.95;1694000;84;20749;-60
2021/04/01 03:11:44;;;;;;;;;;;;;;;5.80;74.92;96853.16;1703963;84;20253;-61
2021/04/01 03:14:11;;;;;;;;;;;;;;;5.79;74.91;96855.80;1696935;84;20227;-62
2021/04/01 03:16:39;;;;;;;;;;;;;;;5.77;75.03;96856.34;1689112;84;20309;-62
2021/04/01 03:19:06;;;;;;;;;;;;;;;5.73;75.07;96854.36;1683370;84;21409;-62
2021/04/01 03:21:34;;;;;;;;;;;;;;;5.73;75.09;96847.10;1675771;84;20223;-61
2021/04/01 03:24:01;;;;;;;;;;;;;;;5.73;75.00;96852.25;1687081;84;20256;-62
2021/04/01 03:26:30;;;;;;;;;;;;;;;5.70;75.01;96840.34;1678464;84;20346;-61
2021/04/01 03:28:58;;;;;;;;;;;;;;;5.67;75.11;96834.91;1684237;84;20239;-61
2021/04/01 03:31:25;;;;;;;;;;;;;;;5.66;75.15;96838.37;1680600;84;21211;-61
2021/04/01 03:33:53;;;;;;;;;;;;;;;5.63;75.24;96837.69;1693359;84;20498;-61
2021/04/01 03:36:20;;;;;;;;;;;;;;;5.59;75.27;96835.72;1682279;84;20219;-61
2021/04/01 03:38:48;;;;;;;;;;;;;;;5.56;75.30;96832.42;1701708;83;20609;-61
2021/04/01 03:41:16;;;;;;;;;;;;;;;5.51;75.39;96832.20;1708355;83;20287;-61
2021/04/01 03:43:43;;;;;;;;;;;;;;;5.54;75.51;96831.20;1675317;84;21744;-61
2021/04/01 03:46:13;;;;;;;;;;;;;;;5.55;75.48;96834.17;1688345;84;20236;-62
2021/04/01 03:48:40;;;;;;;;;;;;;;;5.53;75.36;96829.55;1685409;84;20240;-61
2021/04/01 03:51:08;;;;;;;;;;;;;;;5.49;75.31;96830.16;1687800;84;20243;-61
2021/04/01 03:53:36;;;;;;;;;;;;;;;5.45;75.42;96827.33;1687651;83;20226;-61
2021/04/01 03:56:05;;;;;;;;;;;;;;;5.45;75.42;96825.22;1682731;83;21386;-61
2021/04/01 04:09:10;;;;;;;;;;;;;;;5.43;75.59;96824.00;1690769;83;21209;-62
2021/04/01 04:11:44;;;;;;;;;;;;;;;5.46;75.56;96823.00;1693798;83;20228;-60
2021/04/01 04:16:45;;;;;;;;;;;;;;;5.58;75.44;96817.77;1688533;83;20629;-61
2021/04/01 04:19:14;;;;;;;;;;;;;;;5.67;75.22;96812.16;1683821;83;20344;-60
2021/04/01 04:21:41;;;;;;;;;;;;;;;5.78;74.95;96818.11;1683112;83;21227;-60
2021/04/01 04:24:11;;;;;;;;;;;;;;;5.92;74.25;96818.72;1692326;83;20234;-61
2021/04/01 04:26:41;;;;;;;;;;;;;;;6.05;73.92;96812.09;1695421;83;20251;-60
2021/04/01 04:29:08;;;;;;;;;;;;;;;6.24;73.29;96812.03;1689154;83;20245;-60
2021/04/01 04:31:35;;;;;;;;;;;;;;;6.40;72.62;96809.07;1687946;83;20226;-60
2021/04/01 04:34:03;;;;;;;;;;;;;;;6.65;71.85;96801.84;1708013;82;21209;-59
2021/04/01 04:36:30;;;;;;;;;;;;;;;6.86;70.92;96804.59;1716887;82;20232;-68
2021/04/01 04:38:59;;;;;;;;;;;;;;;7.09;70.37;96798.22;1715120;82;20261;-65
2021/04/01 04:41:27;;;;;;;;;;;;;;;7.41;69.53;96798.69;1704363;82;20258;-65
2021/04/01 04:43:54;;;;;;;;;;;;;;;7.74;68.21;96806.33;1707688;82;20506;-65
2021/04/01 04:46:22;;;;;;;;;;;;;;;8.03;67.38;96802.11;1704835;84;22269;-65
2021/04/01 04:48:49;;;;;;;;;;;;;;;8.34;66.45;96805.95;1706629;83;20225;-64
2021/04/01 04:51:18;;;;;;;;;;;;;;;8.69;65.03;96806.98;1704862;84;20229;-65
2021/04/01 04:53:45;;;;;;;;;;;;;;;8.99;63.89;96794.77;1704868;84;20229;-66
2021/04/01 04:56:19;;;;;;;;;;;;;;;9.25;63.00;96788.94;1704883;84;20249;-65
2021/04/01 05:07:01;;;;;;;;;;;;;;;10.28;59.32;96783.66;1731746;82;20244;-65
2021/04/01 05:09:29;;;;;;;;;;;;;;;10.52;58.92;96785.09;1721367;82;20216;-65
2021/04/01 05:11:56;;;;;;;;;;;;;;;10.88;58.01;96785.30;1726863;82;23354;-65
2021/04/01 05:14:24;;;;;;;;;;;;;;;11.29;57.29;96780.30;1699221;84;20230;-65
2021/04/01 05:16:52;;;;;;;;;;;;;;;11.71;56.38;96774.27;1682372;84;20248;-64
2021/04/01 05:19:21;;;;;;;;;;;;;;;12.13;54.62;96782.03;1692021;84;20240;-64
2021/04/01 05:21:55;;;;;;;;;;;;;;;12.43;54.03;96781.17;1687990;84;20499;-64
2021/04/01 05:24:19;;;;;;;;;;;;;;;12.68;52.83;96775.79;1681935;84;21231;-63
2021/04/01 05:29:21;;;;;;;;;;;;;;;12.74;52.18;96770.57;1700507;84;20251;-64
2021/04/01 05:31:49;;;;;;;;;;;;;;;12.76;52.57;96769.16;1678249;84;20227;-64
2021/04/01 05:34:18;;;;;;;;;;;;;;;12.75;52.11;96770.94;1663643;85;20246;-64
2021/04/01 05:36:46;;;;;;;;;;;;;;;12.72;51.79;96773.77;1658157;86;21399;-63
2021/04/01 05:39:18;;;;;;;;;;;;;;;12.89;51.04;96769.87;1646993;86;20239;-64
2021/04/01 05:41:49;;;;;;;;;;;;;;;13.00;51.04;96769.05;1658074;86;20250;-64
2021/04/01 05:44:35;;;;;;;;;;;;;;;13.22;50.85;96765.13;1657280;85;20260;-65
2021/04/01 05:47:16;;;;;;;;;;;;;;;13.54;49.85;96759.66;1632059;86;20260;-64
2021/04/01 06:03:35;;;;;;;;;;;;;;;12.96;51.72;96748.94;1642987;86;21171;-64
2021/04/01 06:06:05;;;;;;;;;;;;;;;13.44;50.70;96751.25;1635523;86;20249;-64
2021/04/01 06:08:34;;;;;;;;;;;;;;;13.84;49.90;96752.92;1652455;86;20231;-65
2021/04/01 06:11:02;;;;;;;;;;;;;;;13.91;48.78;96752.77;1665960;85;20226;-65
2021/04/01 06:13:32;;;;;;;;;;;;;;;13.69;49.16;96753.69;1646683;86;20446;-65
2021/04/01 06:16:02;;;;;;;;;;;;;;;13.42;49.76;96754.47;1635010;86;21220;-66
2021/04/01 06:18:33;;;;;;;;;;;;;;;13.32;50.77;96746.16;1688882;84;20225;-65
2021/04/01 06:21:04;;;;;;;;;;;;;;;13.70;50.38;96747.50;1665832;85;20507;-64
2021/04/01 06:23:32;;;;;;;;;;;;;;;14.15;48.46;96742.11;1657673;86;20223;-65
2021/04/01 06:25:59;;;;;;;;;;;;;;;14.21;48.06;96744.67;1653058;86;21197;-65
2021/04/01 06:28:33;;;;;;;;;;;;;;;14.37;48.37;96743.75;1664865;85;21494;-66
2021/04/01 06:31:01;;;;;;;;;;;;;;;14.43;47.69;96733.28;1696129;83;20251;-63
2021/04/01 06:33:29;;;;;;;;;;;;;;;14.32;47.87;96729.77;1665161;85;20235;-64
2021/04/01 06:36:03;;;;;;;;;;;;;;;14.04;48.40;96735.15;1710379;82;20248;-66
2021/04/01 06:38:36;;;;;;;;;;;;;;;14.10;48.61;96733.34;1709908;84;20249;-66
2021/04/01 06:41:08;;;;;;;;;;;;;;;14.16;48.15;96722.41;1681776;84;21383;-65
2021/04/01 06:43:49;;;;;;;;;;;;;;;14.42;47.76;96723.30;1680114;84;20269;-67
2021/04/01 06:46:17;;;;;;;;;;;;;;;14.70;47.35;96714.47;1692956;84;20603;-65
2021/04/01 06:51:26;;;;;;;;;;;;;;;14.66;47.71;96717.83;1713886;83;20241;-66
2021/04/01 06:53:59;;;;;;;;;;;;;;;14.61;47.65;96719.19;1678188;84;21405;-65
2021/04/01 06:56:40;;;;;;;;;;;;;;;14.68;48.13;96721.13;1670002;84;20218;-65
2021/04/01 06:59:22;;;;;;;;;;;;;;;15.35;46.70;96720.19;1656850;85;20243;-65
2021/04/01 07:01:55;;;;;;;;;;;;;;;15.96;44.69;96720.45;1674043;85;20223;-67
2021/04/01 07:04:16;;;;;;;;;;;;;;;16.16;44.89;96719.14;1660145;85;20280;-71
2021/04/01 07:06:47;;;;;;;;;;;;;;;16.71;44.12;96719.75;1674416;84;21151;-64
2021/04/01 07:09:47;;;;;;;;;;;;;;;17.32;42.68;96713.63;1667032;85;20231;-68
2021/04/01 07:12:15;;;;;;;;;;;;;;;17.71;41.02;96705.50;1671072;84;20227;-65
2021/04/01 07:14:42;;;;;;;;;;;;;;;17.91;41.85;96711.45;1671742;84;20251;-62
2021/04/01 07:17:16;;;;;;;;;;;;;;;18.61;39.27;96704.08;1699955;83;20256;-64
2021/04/01 07:47:42;;;;;;;;;;;;;;;18.64;38.21;96674.36;1683061;84;22191;-64
2021/04/01 07:50:16;;;;;;;;;;;;;;;18.31;38.83;96676.80;1655414;85;20219;-64
2021/04/01 07:52:41;;;;;;;;;;;;;;;18.11;39.15;96670.93;1710111;84;20508;-63
2021/04/01 07:58:25;;;;;;;;;;;;;;;17.57;40.31;96669.64;1717187;83;20227;-64
2021/04/01 08:05:58;;;;;;;;;;;;;;;17.62;41.39;96666.07;1718986;83;20226;-65
2021/04/01 08:08:26;;;;;;;;;;;;;;;18.41;40.53;96658.31;1718324;83;20252;-64
2021/04/01 08:10:56;;;;;;;;;;;;;;;19.23;39.21;96648.65;1718411;83;20527;-65
2021/04/01 08:13:27;;;;;;;;;;;;;;;19.89;38.01;96645.61;1696497;83;22129;-64
2021/04/01 08:15:55;;;;;;;;;;;;;;;20.40;37.38;96636.95;1730302;83;20727;-64
2021/04/01 08:18:29;;;;;;;;;;;;;;;20.63;36.00;96633.63;1732814;83;20270;-64
2021/04/01 08:21:04;;;;;;;;;;;;;;;20.35;36.58;96637.16;1701167;82;20699;-64
2021/04/01 08:23:35;;;;;;;;;;;;;;;20.12;36.65;96635.21;1733411;82;20483;-65
2021/04/01 08:34:31;;;;;;;;;;;;;;;20.61;35.51;96625.05;1748061;82;20300;-65
2021/04/01 08:36:50;;;;;;;;;;;;;;;21.01;35.05;96616.65;1746832;82;20224;-64
2021/04/01 08:39:21;;;;;;;;;;;;;;;21.53;33.41;96618.33;1748016;82;21209;-64
2021/04/01 08:42:03;;;;;;;;;;;;;;;22.01;31.54;96617.61;1748079;82;20220;-65
2021/04/01 08:44:56;;;;;;;;;;;;;;;22.51;30.88;96611.34;1735306;82;20243;-65
2021/04/01 08:47:37;;;;;;;;;;;;;;;23.07;29.07;96614.80;1719055;82;20223;-65
2021/04/01 08:50:26;;;;;;;;;;;;;;;23.59;29.16;96604.44;1699247;83;20231;-66
2021/04/01 08:52:53;;;;;;;;;;;;;;;24.46;29.36;96598.47;1700440;84;21516;-65
2021/04/01 08:55:21;;;;;;;;;;;;;;;25.66;28.15;96592.77;1703341;84;20234;-65
2021/04/01 08:58:05;;;;;;;;;;;;;;;26.83;26.87;96584.20;1703479;83;20245;-64
2021/04/01 09:00:32;;;;;;;;;;;;;;;27.56;24.07;96579.81;1741612;82;20752;-64
2021/04/01 09:03:02;;;;;;;;;;;;;;;27.70;23.32;96585.36;1746755;82;20238;-64
2021/04/01 09:05:29;;;;;;;;;;;;;;;27.46;23.55;96572.30;1720372;83;21228;-64
2021/04/01 09:08:01;;;;;;;;;;;;;;;27.47;24.19;96566.48;1721305;83;20223;-64
2021/04/01 09:10:38;;;;;;;;;;;;;;;27.78;24.37;96564.78;1732713;83;20518;-64
2021/04/01 09:13:16;;;;;;;;;;;;;;;28.15;24.29;96556.90;1731964;83;20266;-64
2021/04/01 09:15:48;;;;;;;;;;;;;;;28.63;23.52;96550.84;1732511;83;20270;-65
2021/04/01 09:18:27;;;;;;;;;;;;;;;29.23;23.18;96549.25;1732608;83;21225;-65
2021/04/01 09:20:57;;;;;;;;;;;;;;;30.00;22.47;96541.27;1732608;83;37646;-64
2021/04/01 09:23:42;;;;;;;;;;;;;;;30.77;21.38;96534.05;1745614;82;20217;-64
2021/04/01 09:26:11;;;;;;;;;;;;;;;31.30;21.21;96528.05;1746459;82;20217;-65
2021/04/01 09:28:41;;;;;;;;;;;;;;;31.70;20.52;96526.61;1746240;82;20221;-65
2021/04/01 09:31:11;;;;;;;;;;;;;;;31.77;19.53;96528.31;1738731;80;20684;-65
2021/04/01 09:33:40;;;;;;;;;;;;;;;31.42;19.87;96516.75;1733968;82;20312;-64
2021/04/01 09:36:18;;;;;;;;;;;;;;;31.42;19.84;96514.61;1749600;82;20241;-64
2021/04/01 09:38:52;;;;;;;;;;;;;;;31.33;19.67;96508.81;1749653;81;20253;-64
2021/04/01 09:41:27;;;;;;;;;;;;;;;31.24;19.19;96506.27;1726358;82;20541;-64
2021/04/01 09:43:55;;;;;;;;;;;;;;;30.76;19.44;96502.44;1714512;82;21359;-64
2021/04/01 09:46:23;;;;;;;;;;;;;;;30.76;19.95;96504.31;1732805;83;20231;-65
2021/04/01 09:48:54;;;;;;;;;;;;;;;31.11;20.06;96497.47;1732787;83;20219;-64
2021/04/01 09:51:21;;;;;;;;;;;;;;;31.58;18.89;96500.42;1745814;82;20221;-65
2021/04/01 09:53:53;;;;;;;;;;;;;;;31.64;18.77;96500.76;1746499;82;20225;-64
2021/04/01 09:56:26;;;;;;;;;;;;;;;31.46;18.41;96488.92;1741158;82;22268;-64
2021/04/01 09:58:54;;;;;;;;;;;;;;;30.58;19.12;96485.23;1735932;82;20275;-64
2021/04/01 10:01:35;;;;;;;;;;;;;;;29.86;19.75;96483.18;1712147;82;20227;-64
2021/04/01 10:04:11;;;;;;;;;;;;;;;29.61;20.03;96474.57;1711615;84;20228;-64
2021/04/01 10:06:47;;;;;;;;;;;;;;;29.51;20.93;96473.28;1711687;83;20217;-64
2021/04/01 10:09:26;;;;;;;;;;;;;;;29.95;20.48;96472.93;1711692;83;20227;-63
2021/04/01 10:12:08;;;;;;;;;;;;;;;30.53;20.44;96467.70;1711725;84;20735;-64
2021/04/01 10:14:34;;;;;;;;;;;;;;;31.10;20.26;96462.34;1735177;82;20504;-64
2021/04/01 10:17:09;;;;;;;;;;;;;;;31.55;19.54;96455.33;1715547;82;20636;-63
2021/04/01 10:19:42;;;;;;;;;;;;;;;31.70;19.04;96455.53;1741219;82;20221;-64
2021/04/01 10:22:23;;;;;;;;;;;;;;;31.74;19.02;96456.68;1741280;82;21366;-64
2021/04/01 10:25:20;;;;;;;;;;;;;;;31.74;19.04;96449.97;1741357;82;20647;-64
2021/04/01 10:27:55;;;;;;;;;;;;;;;31.57;18.68;96447.84;1740014;82;20265;-65
2021/04/01 10:30:21;;;;;;;;;;;;;;;30.98;19.24;96440.17;1719105;82;20264;-65
2021/04/01 10:32:53;;;;;;;;;;;;;;;30.61;19.64;96434.69;1740594;82;20516;-64
2021/04/01 10:35:24;;;;;;;;;;;;;;;30.45;20.23;96430.91;1741337;82;21215;-64
2021/04/01 10:37:56;;;;;;;;;;;;;;;30.22;20.38;96428.29;1741252;82;20276;-64
2021/04/01 10:40:21;;;;;;;;;;;;;;;29.78;21.52;96424.70;1741263;82;20225;-64
2021/04/01 10:42:52;;;;;;;;;;;;;;;29.44;21.43;96413.79;1730006;82;20240;-64
2021/04/01 10:45:22;;;;;;;;;;;;;;;29.14;21.30;96410.64;1732379;82;20245;-64
2021/04/01 10:47:57;;;;;;;;;;;;;;;28.78;21.80;96414.30;1741308;82;21483;-64
2021/04/01 10:50:28;;;;;;;;;;;;;;;28.42;20.91;96411.50;1741341;82;20595;-64
2021/04/01 10:52:55;;;;;;;;;;;;;;;28.15;21.54;96403.53;1741311;82;20221;-64
2021/04/01 10:55:31;;;;;;;;;;;;;;;28.03;22.32;96396.81;1741304;82;20218;-64
2021/04/01 10:58:08;;;;;;;;;;;;;;;28.15;22.36;96395.00;1739910;82;20500;-64
2021/04/01 11:00:55;;;;;;;;;;;;;;;28.42;21.85;96387.48;1838457;76;20231;-63
2021/04/01 11:03:24;;;;;;;;;;;;;;;28.22;21.87;96385.58;1788004;77;20279;-64
2021/04/01 11:05:52;;;;;;;;;;;;;;;27.95;22.29;96382.45;1817581;77;21187;-64
2021/04/01 11:08:21;;;;;;;;;;;;;;;27.77;22.31;96377.91;1817517;79;20248;-64
2021/04/01 11:11:00;;;;;;;;;;;;;;;27.57;22.39;96374.95;1818124;77;20148;-64
2021/04/01 11:13:34;;;;;;;;;;;;;;;27.45;22.04;96369.54;1818113;78;20500;-64
2021/04/01 11:16:04;;;;;;;;;;;;;;;27.25;22.91;96363.02;1786120;79;20514;-65
2021/04/01 11:18:37;;;;;;;;;;;;;;;27.18;22.97;96368.94;1785897;79;21199;-65
2021/04/01 11:21:06;;;;;;;;;;;;;;;27.20;23.13;96362.06;1731526;80;20206;-65
2021/04/01 11:23:34;;;;;;;;;;;;;;;27.21;22.78;96359.18;1786892;79;20513;-64
2021/04/01 11:26:02;;;;;;;;;;;;;;;27.18;22.68;96357.76;1785912;79;20490;-64
2021/04/01 11:28:49;;;;;;;;;;;;;;;27.21;22.71;96343.20;1788333;77;20227;-65
2021/04/01 11:31:29;;;;;;;;;;;;;;;27.34;22.89;96339.09;1785169;79;21360;-64
2021/04/01 11:33:58;;;;;;;;;;;;;;;27.49;22.42;96337.94;1785699;80;20243;-64
2021/04/01 11:36:31;;;;;;;;;;;;;;;27.59;22.66;96331.56;1785912;79;20231;-64
2021/04/01 11:39:02;;;;;;;;;;;;;;;27.70;22.71;96326.82;1785866;80;20215;-64
2021/04/01 11:41:28;;;;;;;;;;;;;;;27.81;22.46;96327.10;1782418;80;20499;-64
2021/04/01 11:43:57;;;;;;;;;;;;;;;27.88;22.85;96320.66;1786763;79;21377;-64
2021/04/01 11:46:26;;;;;;;;;;;;;;;27.97;22.90;96319.05;1785860;80;20246;-65
2021/04/01 11:48:57;;;;;;;;;;;;;;;28.02;22.70;96311.18;1785896;80;20274;-64
2021/04/01 11:51:27;;;;;;;;;;;;;;;28.07;22.69;96305.45;1785925;80;20234;-64
2021/04/01 11:53:55;;;;;;;;;;;;;;;28.11;22.32;96305.83;1785930;80;20278;-64
2021/04/01 11:56:22;;;;;;;;;;;;;;;28.12;22.79;96299.44;1786013;80;22246;-64
2021/04/01 11:58:50;;;;;;;;;;;;;;;28.15;22.94;96296.86;1789311;78;20315;-64
2021/04/01 12:01:31;;;;;;;;;;;;;;;28.03;22.96;96288.82;1818079;79;20218;-64
2021/04/01 12:04:03;;;;;;;;;;;;;;;27.78;23.47;96291.56;1817859;78;20248;-64
2021/04/01 12:06:31;;;;;;;;;;;;;;;27.59;23.77;96286.26;1818102;79;20232;-64
2021/04/01 12:08:59;;;;;;;;;;;;;;;27.61;23.82;96281.52;1818069;79;21366;-64
2021/04/01 12:11:29;;;;;;;;;;;;;;;27.71;23.92;96282.31;1817590;79;20244;-65
2021/04/01 12:14:11;;;;;;;;;;;;;;;27.86;23.97;96288.58;1778181;79;20208;-65
2021/04/01 12:16:38;;;;;;;;;;;;;;;27.68;23.93;96280.93;1816907;79;20216;-64
2021/04/01 12:19:06;;;;;;;;;;;;;;;27.20;23.98;96280.31;1784283;79;20232;-64
2021/04/01 12:21:33;;;;;;;;;;;;;;;26.58;24.79;96282.40;1804330;79;21087;-64
2021/04/01 12:24:03;;;;;;;;;;;;;;;26.07;25.52;96270.09;1816789;77;20227;-64
2021/04/01 12:26:50;;;;;;;;;;;;;;;25.64;25.91;96267.52;1817421;77;20224;-64
2021/04/01 12:29:18;;;;;;;;;;;;;;;25.19;26.41;96263.45;1816212;77;20236;-63
2021/04/01 12:31:58;;;;;;;;;;;;;;;24.75;27.19;96259.65;1817464;77;20499;-64
2021/04/01 12:34:28;;;;;;;;;;;;;;;24.42;27.80;96265.27;1815091;77;21190;-64
2021/04/01 12:36:58;;;;;;;;;;;;;;;24.28;28.07;96256.16;1817147;79;20500;-64
2021/04/01 12:39:31;;;;;;;;;;;;;;;24.12;28.59;96258.70;1817482;78;20228;-65
2021/04/01 12:41:58;;;;;;;;;;;;;;;23.85;29.32;96254.69;1817404;78;20216;-65
2021/04/01 12:44:37;;;;;;;;;;;;;;;23.45;30.11;96251.86;1817169;79;20228;-65
2021/04/01 12:47:04;;;;;;;;;;;;;;;23.12;30.58;96248.03;1817513;78;22095;-64
2021/04/01 12:49:33;;;;;;;;;;;;;;;22.85;31.44;96247.56;1786616;79;20259;-64
2021/04/01 12:52:01;;;;;;;;;;;;;;;22.66;31.86;96242.44;1817424;79;20232;-64
2021/04/01 12:54:33;;;;;;;;;;;;;;;22.48;32.32;96238.44;1817439;79;20220;-64
2021/04/01 12:57:03;;;;;;;;;;;;;;;22.40;32.90;96235.45;1817470;79;20232;-63
2021/04/01 12:59:34;;;;;;;;;;;;;;;22.33;34.64;96235.88;1809012;79;21203;-65
2021/04/01 13:02:08;;;;;;;;;;;;;;;22.28;35.34;96236.13;1802282;79;20216;-64
2021/04/01 13:04:32;;;;;;;;;;;;;;;22.16;35.50;96227.90;1801622;79;20150;-63
2021/04/01 13:09:45;;;;;;;;;;;;;;;21.92;37.38;96222.48;1802391;79;20226;-64
2021/04/01 13:12:13;;;;;;;;;;;;;;;21.73;36.54;96215.50;1801959;79;21209;-64
2021/04/01 13:14:41;;;;;;;;;;;;;;;21.66;36.55;96209.32;1817962;78;21242;-64
2021/04/01 13:17:09;;;;;;;;;;;;;;;21.54;36.58;96202.91;1834498;77;20228;-64
2021/04/01 13:19:37;;;;;;;;;;;;;;;21.31;36.61;96199.88;1828654;78;21774;-64
2021/04/01 13:22:22;;;;;;;;;;;;;;;20.93;37.10;96202.66;1802307;79;20214;-64
2021/04/01 13:25:07;;;;;;;;;;;;;;;20.62;37.85;96197.53;1767907;80;21275;-65
2021/04/01 13:27:13;;;;;;;;;;;;;;;20.47;38.09;96193.56;1763142;80;20228;-63
2021/04/01 13:29:42;;;;;;;;;;;;;;;20.39;38.04;96186.55;1782209;78;20225;-64
2021/04/01 13:32:15;;;;;;;;;;;;;;;20.38;38.45;96188.88;1798650;78;20218;-64
2021/04/01 13:34:48;;;;;;;;;;;;;;;20.48;38.11;96180.72;1798315;80;20234;-63
2021/04/01 13:39:53;;;;;;;;;;;;;;;20.46;37.82;96174.31;1798542;80;20218;-64
2021/04/01 13:42:24;;;;;;;;;;;;;;;20.13;38.35;96175.09;1798669;80;20218;-64
2021/04/01 13:44:55;;;;;;;;;;;;;;;19.81;39.08;96164.66;1781830;80;20241;-65
2021/04/01 13:47:22;;;;;;;;;;;;;;;19.70;39.76;96163.73;1761261;81;20216;-64
2021/04/01 13:49:54;;;;;;;;;;;;;;;19.66;39.44;96157.19;1777115;80;21190;-64
2021/04/01 13:52:27;;;;;;;;;;;;;;;19.58;39.54;96160.69;1792418;80;20222;-63
2021/04/01 13:57:50;;;;;;;;;;;;;;;19.40;40.33;96161.48;1792455;80;20289;-63
2021/04/01 14:11:15;;;;;;;;;;;;;;;19.76;38.68;96145.95;1755611;81;20533;-64
2021/04/01 14:13:43;;;;;;;;;;;;;;;19.75;39.78;96137.72;1757522;80;20516;-64
2021/04/01 14:16:11;;;;;;;;;;;;;;;19.80;39.94;96134.09;1786742;80;21163;-64
2021/04/01 14:18:38;;;;;;;;;;;;;;;19.93;39.39;96130.02;1786575;80;20247;-65
2021/04/01 14:21:07;;;;;;;;;;;;;;;20.06;39.50;96128.10;1786570;80;20250;-64
2021/04/01 14:23:36;;;;;;;;;;;;;;;20.18;39.10;96136.70;1786366;80;20281;-65
2021/04/01 14:26:19;;;;;;;;;;;;;;;20.20;38.17;96124.17;1786158;80;20225;-64
2021/04/01 14:28:39;;;;;;;;;;;;;;;20.09;38.67;96121.97;1784777;80;21373;-63
2021/04/01 14:31:06;;;;;;;;;;;;;;;19.96;38.93;96123.89;1756321;80;20230;-64
2021/04/01 14:33:33;;;;;;;;;;;;;;;19.81;38.88;96119.10;1786548;80;20277;-63
2021/04/01 14:36:03;;;;;;;;;;;;;;;19.69;39.15;96104.20;1785952;80;20215;-64
2021/04/01 14:38:30;;;;;;;;;;;;;;;19.69;39.15;96106.84;1786538;80;20239;-64
2021/04/01 14:41:05;;;;;;;;;;;;;;;19.68;39.64;96103.88;1786538;80;21263;-64
2021/04/01 14:46:02;;;;;;;;;;;;;;;19.54;40.88;96103.32;1755661;81;20488;-64
2021/04/01 14:48:30;;;;;;;;;;;;;;;19.49;41.09;96099.42;1755554;81;20220;-64
2021/04/01 14:50:59;;;;;;;;;;;;;;;19.47;41.54;96097.47;1755580;81;20216;-63
2021/04/01 14:56:02;;;;;;;;;;;;;;;19.41;40.65;96104.74;1755606;81;20241;-64